createdAt,value
2022-11-24T00:01:29.079Z,10.37
2022-11-24T00:03:58.341Z,10.49
2022-11-24T00:06:26.482Z,10.30
2022-11-24T00:08:54.839Z,10.18
2022-11-24T00:11:24.339Z,10.24
2022-11-24T00:13:51.671Z,9.99
2022-11-24T00:16:21.699Z,9.92
2022-11-24T00:18:50.407Z,9.70
2022-11-24T00:21:18.649Z,9.99
2022-11-24T00:23:46.296Z,10.18
2022-11-24T00:26:15.620Z,10.22
2022-11-24T00:28:44.156Z,10.06
2022-11-24T00:31:20.492Z,9.89
2022-11-24T00:33:49.537Z,10.09
2022-11-24T00:36:18.317Z,10.03
2022-11-24T00:38:45.887Z,10.15
2022-11-24T00:41:13.675Z,10.15
2022-11-24T00:43:40.806Z,10.09
2022-11-24T00:46:07.664Z,9.89
2022-11-24T00:51:18.421Z,9.69
2022-11-24T00:53:45.867Z,9.43
2022-11-24T00:56:12.860Z,10.00
2022-11-24T00:58:40.320Z,10.14
2022-11-24T01:01:12.227Z,9.93
2022-11-24T01:03:39.385Z,10.11
2022-11-24T01:06:08.854Z,9.76
2022-11-24T01:08:38.040Z,9.89
2022-11-24T01:11:23.119Z,9.65
2022-11-24T01:13:54.671Z,9.86
2022-11-24T01:16:26.575Z,9.74
2022-11-24T01:18:54.954Z,9.89
2022-11-24T01:21:22.358Z,9.66
2022-11-24T01:23:49.508Z,9.60
2022-11-24T01:26:19.159Z,9.51
2022-11-24T01:28:48.173Z,8.99
2022-11-24T01:31:15.801Z,8.99
2022-11-24T01:33:42.568Z,9.01
2022-11-24T01:36:09.537Z,9.11
2022-11-24T01:38:36.465Z,9.20
2022-11-24T01:41:05.627Z,9.12
2022-11-24T01:43:33.317Z,8.76
2022-11-24T01:46:06.872Z,8.58
2022-11-24T01:48:40.238Z,8.63
2022-11-24T01:51:13.240Z,8.59
2022-11-24T01:53:43.282Z,8.56
2022-11-24T01:56:12.895Z,8.36
2022-11-24T01:58:42.714Z,8.57
2022-11-24T02:01:10.304Z,8.85
2022-11-24T02:03:42.941Z,8.77
2022-11-24T02:06:13.567Z,8.78
2022-11-24T02:08:49.532Z,8.85
2022-11-24T02:11:16.458Z,8.67
2022-11-24T02:13:44.029Z,8.57
2022-11-24T02:16:12.402Z,8.63
2022-11-24T02:18:42.311Z,8.87
2022-11-24T02:21:12.138Z,8.60
2022-11-24T02:23:50.206Z,8.40
2022-11-24T02:26:27.240Z,8.43
2022-11-24T02:28:54.404Z,7.91
2022-11-24T02:31:21.673Z,7.80
2022-11-24T02:33:50.325Z,8.47
2022-11-24T02:36:17.890Z,8.30
2022-11-24T02:38:44.755Z,8.20
2022-11-24T02:41:20.147Z,8.39
2022-11-24T02:43:56.456Z,8.28
2022-11-24T02:46:23.690Z,8.18
2022-11-24T02:48:50.537Z,7.95
2022-11-24T02:51:17.673Z,7.90
2022-11-24T02:53:44.709Z,7.82
2022-11-24T02:56:11.658Z,7.60
2022-11-24T02:58:38.920Z,7.39
2022-11-24T03:01:05.948Z,7.45
2022-11-24T03:03:33.057Z,7.48
2022-11-24T03:06:00.165Z,7.30
2022-11-24T03:08:27.242Z,7.33
2022-11-24T03:10:54.662Z,7.55
2022-11-24T03:13:21.628Z,7.76
2022-11-24T03:15:49.006Z,7.75
2022-11-24T03:18:15.765Z,8.15
2022-11-24T03:20:42.794Z,7.47
2022-11-24T03:23:09.875Z,7.46
2022-11-24T03:25:37.906Z,7.27
2022-11-24T03:28:05.040Z,7.48
2022-11-24T03:30:31.885Z,7.46
2022-11-24T03:32:59.946Z,7.56
2022-11-24T03:35:26.916Z,7.74
2022-11-24T03:37:53.948Z,7.94
2022-11-24T03:40:20.776Z,7.94
2022-11-24T03:42:47.974Z,7.77
2022-11-24T03:45:45.524Z,7.52
2022-11-24T03:48:03.886Z,7.51
2022-11-24T03:50:31.785Z,7.80
2022-11-24T03:52:58.520Z,7.80
2022-11-24T03:55:25.561Z,7.40
2022-11-24T03:57:52.341Z,7.34
2022-11-24T04:00:19.623Z,7.16
2022-11-24T04:02:48.426Z,7.19
2022-11-24T04:05:15.990Z,6.78
2022-11-24T04:07:42.873Z,7.12
2022-11-24T04:10:10.127Z,7.45
2022-11-24T04:12:48.709Z,7.17
2022-11-24T04:15:22.121Z,7.39
2022-11-24T04:17:53.058Z,7.16
2022-11-24T04:20:20.176Z,7.36
2022-11-24T04:22:47.016Z,7.16
2022-11-24T04:25:17.850Z,7.24
2022-11-24T04:27:45.098Z,7.10
2022-11-24T04:30:12.123Z,7.14
2022-11-24T04:32:39.033Z,6.89
2022-11-24T04:35:08.365Z,7.02
2022-11-24T04:37:35.391Z,6.94
2022-11-24T04:40:02.312Z,6.66
2022-11-24T04:42:29.267Z,6.63
2022-11-24T04:44:56.388Z,6.50
2022-11-24T04:47:25.474Z,6.52
2022-11-24T04:49:55.600Z,6.62
2022-11-24T04:52:24.289Z,6.39
2022-11-24T04:54:52.028Z,6.18
2022-11-24T04:57:21.818Z,6.47
2022-11-24T04:59:49.882Z,6.29
2022-11-24T05:02:17.209Z,6.68
2022-11-24T05:04:47.846Z,6.55
2022-11-24T05:07:19.122Z,6.20
2022-11-24T05:10:07.088Z,6.51
2022-11-24T05:12:33.819Z,6.51
2022-11-24T05:15:02.229Z,6.56
2022-11-24T05:17:35.016Z,6.87
2022-11-24T05:20:04.917Z,6.87
2022-11-24T05:22:32.374Z,6.78
2022-11-24T05:24:59.387Z,6.77
2022-11-24T05:27:26.247Z,6.71
2022-11-24T05:29:53.369Z,6.79
2022-11-24T05:32:29.251Z,6.52
2022-11-24T05:35:05.946Z,6.65
2022-11-24T05:37:32.780Z,6.94
2022-11-24T05:39:59.748Z,6.72
2022-11-24T05:42:46.746Z,7.08
2022-11-24T05:45:18.402Z,7.02
2022-11-24T05:47:45.842Z,6.75
2022-11-24T05:50:14.868Z,6.94
2022-11-24T05:52:41.780Z,6.99
2022-11-24T05:55:10.013Z,7.15
2022-11-24T05:57:36.859Z,7.21
2022-11-24T06:00:11.612Z,6.86
2022-11-24T06:02:42.336Z,7.38
2022-11-24T06:05:20.735Z,8.42
2022-11-24T06:07:48.116Z,10.56
2022-11-24T06:10:24.175Z,11.11
2022-11-24T06:12:53.814Z,9.02
2022-11-24T06:15:20.916Z,8.01
2022-11-24T06:17:57.622Z,8.01
2022-11-24T06:20:29.734Z,8.50
2022-11-24T06:23:00.301Z,9.19
2022-11-24T06:25:29.867Z,9.09
2022-11-24T06:27:56.903Z,10.13
2022-11-24T06:30:23.965Z,10.28
2022-11-24T06:32:55.068Z,10.36
2022-11-24T06:35:22.452Z,10.04
2022-11-24T06:37:49.462Z,8.11
2022-11-24T06:40:17.676Z,8.85
2022-11-24T06:42:50.684Z,8.13
2022-11-24T06:45:37.927Z,9.20
2022-11-24T06:48:05.274Z,9.28
2022-11-24T06:50:49.948Z,8.20
2022-11-24T06:53:17.354Z,8.28
2022-11-24T06:55:45.535Z,8.69
2022-11-24T06:58:12.455Z,8.57
2022-11-24T07:00:40.046Z,8.37
2022-11-24T07:03:07.453Z,9.23
2022-11-24T07:05:34.336Z,9.07
2022-11-24T07:08:01.265Z,9.01
2022-11-24T07:10:28.204Z,8.99
2022-11-24T07:12:55.042Z,9.05
2022-11-24T07:15:22.101Z,9.50
2022-11-24T07:17:49.142Z,9.37
2022-11-24T07:20:16.275Z,9.14
2022-11-24T07:22:43.298Z,9.12
2022-11-24T07:25:11.060Z,9.04
2022-11-24T07:27:38.067Z,9.40
2022-11-24T07:30:05.836Z,9.14
2022-11-24T07:32:33.283Z,9.29
2022-11-24T07:35:02.048Z,9.38
2022-11-24T07:37:31.638Z,9.19
2022-11-24T07:40:00.279Z,9.14
2022-11-24T07:42:27.916Z,9.05
2022-11-24T07:44:54.868Z,9.29
2022-11-24T07:47:21.815Z,10.10
2022-11-24T07:49:51.156Z,9.90
2022-11-24T07:52:20.826Z,9.52
2022-11-24T07:54:50.846Z,9.47
2022-11-24T07:57:20.968Z,10.05
2022-11-24T07:59:50.590Z,9.65
2022-11-24T08:02:20.512Z,10.15
2022-11-24T08:04:47.610Z,10.59
2022-11-24T08:07:14.683Z,11.53
2022-11-24T08:09:41.637Z,10.97
2022-11-24T08:12:08.601Z,11.94
2022-11-24T08:14:35.992Z,11.69
2022-11-24T08:17:05.650Z,12.53
2022-11-24T08:19:32.691Z,11.45
2022-11-24T08:21:59.979Z,11.95
2022-11-24T08:24:27.645Z,12.28
2022-11-24T08:26:55.006Z,12.35
2022-11-24T08:29:22.391Z,11.76
2022-11-24T08:31:49.263Z,11.78
2022-11-24T08:34:16.252Z,11.61
2022-11-24T08:36:43.505Z,12.25
2022-11-24T08:39:12.261Z,12.18
2022-11-24T08:41:39.135Z,11.50
2022-11-24T08:44:08.720Z,11.01
2022-11-24T08:46:35.778Z,11.55
2022-11-24T08:49:03.038Z,11.37
2022-11-24T08:51:30.207Z,11.43
2022-11-24T08:54:00.641Z,11.59
2022-11-24T08:56:29.448Z,11.94
2022-11-24T08:58:57.454Z,12.29
2022-11-24T09:01:28.579Z,12.18
2022-11-24T09:03:55.987Z,11.50
2022-11-24T09:06:28.537Z,11.52
2022-11-24T09:08:55.953Z,11.31
2022-11-24T09:11:26.139Z,12.10
2022-11-24T09:13:54.816Z,11.65
2022-11-24T09:16:26.282Z,11.81
2022-11-24T09:19:04.867Z,11.64
2022-11-24T09:21:34.450Z,11.53
2022-11-24T09:24:01.572Z,11.41
2022-11-24T09:26:31.325Z,11.53
2022-11-24T09:29:00.279Z,11.49
2022-11-24T09:31:30.007Z,11.61
2022-11-24T09:33:57.982Z,11.39
2022-11-24T09:36:25.239Z,11.82
2022-11-24T09:38:52.801Z,11.86
2022-11-24T09:41:59.771Z,12.02
2022-11-24T09:44:54.450Z,11.76
2022-11-24T09:47:33.107Z,12.04
2022-11-24T09:50:06.691Z,11.75
2022-11-24T09:52:41.545Z,11.43
2022-11-24T09:55:48.951Z,11.66
2022-11-24T09:58:27.815Z,11.52
2022-11-24T10:00:56.519Z,11.84
2022-11-24T10:03:33.059Z,11.92
2022-11-24T10:06:04.507Z,11.67
2022-11-24T10:09:00.593Z,11.61
2022-11-24T10:11:45.995Z,11.79
2022-11-24T10:14:54.664Z,11.93
2022-11-24T10:17:45.597Z,11.73
2022-11-24T10:20:19.444Z,11.99
2022-11-24T10:23:02.240Z,12.43
2022-11-24T10:25:57.037Z,11.66
2022-11-24T10:28:38.480Z,12.04
2022-11-24T10:31:35.988Z,12.05
2022-11-24T10:34:14.042Z,12.08
2022-11-24T10:37:01.071Z,11.89
2022-11-24T10:39:40.125Z,11.93
2022-11-24T10:42:31.911Z,12.22
2022-11-24T10:45:10.463Z,12.24
2022-11-24T10:47:38.167Z,12.17
2022-11-24T10:50:27.611Z,12.19
2022-11-24T10:52:59.107Z,12.12
2022-11-24T10:55:26.152Z,12.06
2022-11-24T10:57:53.179Z,11.95
2022-11-24T11:00:20.085Z,12.00
2022-11-24T11:02:50.519Z,12.02
2022-11-24T11:05:33.128Z,12.00
2022-11-24T11:08:22.008Z,12.09
2022-11-24T11:10:51.950Z,12.19
2022-11-24T11:13:26.335Z,11.94
2022-11-24T11:15:53.979Z,11.75
2022-11-24T11:18:21.786Z,11.87
2022-11-24T11:20:57.387Z,11.83
2022-11-24T11:23:33.779Z,11.93
2022-11-24T11:26:26.146Z,11.86
2022-11-24T11:34:55.163Z,11.71
2022-11-24T11:37:30.434Z,11.85
2022-11-24T11:40:01.070Z,11.66
2022-11-24T11:45:32.238Z,11.79
2022-11-24T11:48:03.344Z,11.46
2022-11-24T11:51:14.840Z,11.49
2022-11-24T11:54:03.347Z,11.66
2022-11-24T11:56:37.692Z,11.78
2022-11-24T11:59:08.027Z,11.65
2022-11-24T12:02:09.593Z,11.28
2022-11-24T12:04:48.530Z,11.24
2022-11-24T12:07:27.671Z,11.21
2022-11-24T12:10:16.631Z,11.13
2022-11-24T12:13:03.823Z,11.20
2022-11-24T12:15:34.113Z,11.05
2022-11-24T12:18:55.934Z,11.08
2022-11-24T12:21:13.477Z,10.97
2022-11-24T12:23:51.437Z,10.83
2022-11-24T12:26:48.183Z,10.71
2022-11-24T12:29:41.072Z,10.78
2022-11-24T12:32:25.804Z,10.67
2022-11-24T12:35:19.204Z,10.46
2022-11-24T12:37:54.690Z,10.55
2022-11-24T12:41:18.349Z,10.13
2022-11-24T12:44:31.863Z,9.89
2022-11-24T12:47:20.454Z,9.80
2022-11-24T12:50:29.252Z,9.87
2022-11-24T12:53:18.150Z,9.84
2022-11-24T12:55:46.048Z,9.94
2022-11-24T12:58:18.741Z,9.76
2022-11-24T13:01:05.446Z,9.58
2022-11-24T13:04:00.597Z,9.51
2022-11-24T13:06:33.210Z,9.50
2022-11-24T13:09:09.424Z,9.54
2022-11-24T13:11:51.913Z,9.80
2022-11-24T13:14:38.405Z,9.73
2022-11-24T13:17:39.631Z,9.73
2022-11-24T13:20:14.724Z,9.72
2022-11-24T13:22:48.494Z,9.63
2022-11-24T13:25:22.247Z,9.51
2022-11-24T13:27:53.422Z,9.73
2022-11-24T13:30:38.268Z,9.57
2022-11-24T13:33:16.162Z,9.49
2022-11-24T13:36:04.452Z,9.38
2022-11-24T13:38:54.700Z,9.38
2022-11-24T13:41:33.566Z,9.24
2022-11-24T13:44:16.312Z,9.21
2022-11-24T13:47:06.788Z,9.28
2022-11-24T13:49:48.692Z,9.26
2022-11-24T13:52:40.334Z,9.15
2022-11-24T13:55:13.402Z,9.22
2022-11-24T13:57:45.468Z,9.28
2022-11-24T14:00:25.364Z,9.14
2022-11-24T14:02:54.862Z,9.06
2022-11-24T14:05:27.992Z,8.94
2022-11-24T14:07:55.183Z,8.96
2022-11-24T14:10:50.010Z,8.88
2022-11-24T14:13:22.865Z,8.92
2022-11-24T14:16:36.688Z,8.82
2022-11-24T14:19:11.040Z,8.86
2022-11-24T14:21:44.686Z,8.81
2022-11-24T14:24:30.277Z,8.92
2022-11-24T14:26:57.327Z,8.97
2022-11-24T14:29:32.551Z,9.01
2022-11-24T14:32:02.023Z,8.86
2022-11-24T14:34:30.520Z,9.04
2022-11-24T14:36:58.281Z,8.79
2022-11-24T14:39:27.149Z,8.78
2022-11-24T14:42:22.752Z,8.89
2022-11-24T14:45:15.123Z,8.99
2022-11-24T14:47:45.650Z,9.07
2022-11-24T14:50:20.743Z,8.96
2022-11-24T14:52:55.894Z,9.01
2022-11-24T14:55:49.321Z,9.03
2022-11-24T14:58:40.570Z,8.92
2022-11-24T15:01:20.287Z,8.90
2022-11-24T15:03:47.491Z,8.93
2022-11-24T15:06:40.332Z,8.98
2022-11-24T15:09:19.166Z,8.97
2022-11-24T15:11:46.649Z,8.92
2022-11-24T15:14:45.188Z,8.89
2022-11-24T15:17:21.066Z,8.90
2022-11-24T15:19:54.029Z,8.92
2022-11-24T15:22:46.116Z,8.82
2022-11-24T15:25:32.604Z,8.77
2022-11-24T15:28:02.752Z,8.88
2022-11-24T15:30:32.088Z,8.78
2022-11-24T15:33:00.028Z,8.90
2022-11-24T15:35:33.888Z,9.05
2022-11-24T15:38:00.871Z,8.85
2022-11-24T15:41:00.179Z,8.65
2022-11-24T15:43:58.097Z,8.97
2022-11-24T15:46:40.631Z,8.76
2022-11-24T15:49:07.763Z,8.66
2022-11-24T15:51:35.985Z,8.58
2022-11-24T15:54:07.468Z,8.54
2022-11-24T15:56:36.654Z,8.63
2022-11-24T15:59:04.475Z,8.54
2022-11-24T16:01:33.888Z,8.46
2022-11-24T16:04:01.426Z,8.47
2022-11-24T16:06:31.015Z,8.53
2022-11-24T16:08:59.178Z,8.39
2022-11-24T16:11:26.194Z,8.40
2022-11-24T16:13:54.405Z,8.21
2022-11-24T16:16:23.491Z,8.18
2022-11-24T16:18:52.807Z,8.04
2022-11-24T16:21:19.864Z,8.16
2022-11-24T16:23:48.241Z,8.07
2022-11-24T16:26:14.936Z,7.66
2022-11-24T16:28:42.260Z,7.58
2022-11-24T16:31:31.991Z,7.74
2022-11-24T16:33:58.945Z,7.63
2022-11-24T16:36:26.305Z,7.62
2022-11-24T16:38:53.786Z,7.98
2022-11-24T16:44:11.721Z,8.05
2022-11-24T16:46:41.133Z,7.85
2022-11-24T16:49:09.213Z,7.70
2022-11-24T16:51:39.150Z,7.85
2022-11-24T16:54:09.290Z,7.83
2022-11-24T16:56:38.869Z,8.23
2022-11-24T16:59:08.594Z,8.37
2022-11-24T17:01:36.047Z,8.45
2022-11-24T17:04:03.753Z,8.40
2022-11-24T17:06:33.944Z,8.60
2022-11-24T17:09:01.016Z,8.25
2022-11-24T17:11:30.111Z,8.45
2022-11-24T17:13:59.875Z,8.02
2022-11-24T17:16:28.012Z,8.02
2022-11-24T17:18:55.276Z,7.85
2022-11-24T17:21:27.592Z,7.98
2022-11-24T17:23:59.425Z,8.04
2022-11-24T17:26:27.208Z,7.98
2022-11-24T17:28:55.127Z,8.05
2022-11-24T17:31:24.857Z,7.96
2022-11-24T17:33:54.512Z,8.08
2022-11-24T17:36:36.822Z,7.90
2022-11-24T17:39:05.940Z,8.27
2022-11-24T17:41:34.003Z,8.17
2022-11-24T17:44:20.493Z,8.05
2022-11-24T17:46:47.418Z,8.10
2022-11-24T17:49:14.650Z,8.02
2022-11-24T17:51:46.536Z,8.21
2022-11-24T17:57:00.980Z,8.18
2022-11-24T17:59:28.132Z,7.93
2022-11-24T18:01:54.935Z,8.20
2022-11-24T18:04:22.049Z,8.02
2022-11-24T18:06:49.340Z,8.26
2022-11-24T18:09:16.156Z,8.00
2022-11-24T18:11:43.115Z,8.09
2022-11-24T18:14:10.441Z,8.18
2022-11-24T18:16:37.331Z,8.34
2022-11-24T18:19:11.052Z,8.13
2022-11-24T18:21:40.238Z,8.22
2022-11-24T18:24:08.611Z,8.31
2022-11-24T18:26:35.850Z,8.36
2022-11-24T18:29:06.264Z,8.33
2022-11-24T18:31:35.796Z,8.33
2022-11-24T18:34:05.398Z,8.50
2022-11-24T18:36:33.098Z,8.32
2022-11-24T18:39:08.480Z,8.38
2022-11-24T18:41:36.389Z,8.34
2022-11-24T18:44:08.258Z,8.52
2022-11-24T18:46:35.335Z,8.42
2022-11-24T18:49:02.521Z,8.34
2022-11-24T18:51:29.523Z,8.36
2022-11-24T18:53:59.627Z,8.53
2022-11-24T18:56:27.376Z,8.53
2022-11-24T18:58:56.381Z,8.43
2022-11-24T19:01:27.066Z,8.32
2022-11-24T19:04:03.089Z,8.38
2022-11-24T19:06:37.013Z,8.29
2022-11-24T19:09:24.311Z,8.30
2022-11-24T19:12:16.558Z,8.45
2022-11-24T19:15:02.890Z,8.60
2022-11-24T19:17:32.663Z,8.58
2022-11-24T19:20:01.896Z,8.61
2022-11-24T19:22:41.897Z,8.70
2022-11-24T19:25:09.338Z,8.63
2022-11-24T19:27:36.894Z,8.70
2022-11-24T19:30:04.286Z,8.56
2022-11-24T19:37:57.348Z,8.52
2022-11-24T19:40:36.382Z,8.73
2022-11-24T19:49:32.670Z,8.66
2022-11-24T19:52:05.058Z,8.58
2022-11-24T19:54:35.882Z,8.76
2022-11-24T19:57:10.515Z,8.72
2022-11-24T19:59:38.511Z,8.71
2022-11-24T20:02:05.753Z,8.79
2022-11-24T20:04:33.590Z,8.59
2022-11-24T20:07:00.965Z,8.69
2022-11-24T20:09:30.084Z,8.62
2022-11-24T20:11:57.311Z,8.75
2022-11-24T20:14:24.656Z,8.61
2022-11-24T20:16:55.503Z,8.64
2022-11-24T20:19:23.524Z,8.80
2022-11-24T20:21:54.277Z,8.79
2022-11-24T20:24:34.540Z,8.92
2022-11-24T20:27:14.338Z,8.61
2022-11-24T20:30:38.201Z,8.63
2022-11-24T20:33:05.689Z,8.74
2022-11-24T20:35:38.924Z,8.53
2022-11-24T20:38:09.163Z,8.64
2022-11-24T20:40:41.206Z,8.64
2022-11-24T20:43:17.953Z,8.62
2022-11-24T20:45:45.134Z,8.68
2022-11-24T20:48:15.242Z,8.58
2022-11-24T20:50:48.281Z,8.66
2022-11-24T20:53:21.112Z,8.67
2022-11-24T20:55:51.314Z,8.55
2022-11-24T20:58:21.038Z,8.53
2022-11-24T21:00:50.332Z,8.48
2022-11-24T21:03:17.403Z,8.61
2022-11-24T21:05:57.780Z,8.56
2022-11-24T21:08:28.396Z,8.68
2022-11-24T21:11:04.922Z,8.51
2022-11-24T21:13:36.762Z,8.41
2022-11-24T21:16:26.004Z,8.41
2022-11-24T21:18:56.980Z,8.52
2022-11-24T21:21:27.806Z,8.47
2022-11-24T21:24:41.305Z,8.45
2022-11-24T21:27:11.878Z,8.66
2022-11-24T21:29:38.745Z,8.53
2022-11-24T21:32:10.586Z,8.54
2022-11-24T21:34:41.692Z,8.38
2022-11-24T21:37:08.552Z,8.45
2022-11-24T21:39:39.239Z,8.43
2022-11-24T21:42:06.451Z,8.36
2022-11-24T21:44:33.542Z,8.40
2022-11-24T21:47:00.696Z,8.43
2022-11-24T21:49:27.800Z,8.38
2022-11-24T21:51:56.097Z,8.33
2022-11-24T21:54:23.643Z,8.24
2022-11-24T21:56:50.619Z,8.36
2022-11-24T21:59:17.458Z,8.33
2022-11-24T22:01:44.586Z,8.22
2022-11-24T22:04:12.019Z,7.94
2022-11-24T22:06:39.210Z,8.13
2022-11-24T22:09:06.320Z,8.06
2022-11-24T22:11:33.340Z,8.22
2022-11-24T22:14:07.510Z,8.09
2022-11-24T22:16:59.180Z,7.99
2022-11-24T22:19:26.019Z,8.00
2022-11-24T22:22:14.886Z,7.93
2022-11-24T22:24:42.185Z,7.96
2022-11-24T22:27:09.401Z,7.84
2022-11-24T22:32:36.984Z,7.96
2022-11-24T22:35:04.429Z,8.11
2022-11-24T22:37:31.279Z,8.02
2022-11-24T22:39:58.862Z,8.24
2022-11-24T22:42:25.930Z,8.11
2022-11-24T22:44:55.441Z,8.10
2022-11-24T22:47:22.993Z,8.41
2022-11-24T22:49:49.983Z,8.17
2022-11-24T22:52:17.115Z,8.38
2022-11-24T22:54:44.253Z,8.25
2022-11-24T22:57:11.177Z,7.89
2022-11-24T22:59:38.535Z,7.87
2022-11-24T23:02:05.569Z,8.04
2022-11-24T23:04:32.656Z,8.06
2022-11-24T23:06:59.852Z,8.16
2022-11-24T23:09:28.804Z,8.08
2022-11-24T23:11:55.760Z,8.18
2022-11-24T23:14:25.050Z,8.24
2022-11-24T23:16:54.390Z,8.22
2022-11-24T23:19:21.258Z,8.19
2022-11-24T23:21:48.521Z,8.22
2022-11-24T23:24:15.501Z,8.21
2022-11-24T23:26:42.761Z,8.17
2022-11-24T23:29:10.500Z,8.27
2022-11-24T23:31:40.233Z,8.33
2022-11-24T23:34:07.380Z,8.30
2022-11-24T23:36:34.318Z,8.39
2022-11-24T23:39:11.308Z,8.25
2022-11-24T23:41:38.768Z,8.15
2022-11-24T23:44:06.066Z,8.22
2022-11-24T23:46:33.325Z,8.22
2022-11-24T23:49:02.854Z,8.18
2022-11-24T23:51:31.476Z,8.27
2022-11-24T23:54:00.268Z,8.32
2022-11-24T23:56:33.104Z,8.35
2022-11-24T23:59:01.856Z,8.45
